Terminal Aerodrome Forecast
Issued by NWS

Home | Current Version | Previous Version | Text Only | Print | Product List | Glossary On
Versions: 1 2 3 4 5 6 7 8 9 10 11 12 13 14 15 16 17 18 19 20 21 22 23 24 25 26
000
FTUS45 KGJT 191134
TAFMTJ
TAF
KMTJ 191134Z 1912/2012 14005KT P6SM FEW200
     FM192100 21004KT P6SM VCSH BKN070
     FM192300 12004KT P6SM -SHRASN BKN035
     FM200200 16005KT 2SM -SN SCT015 OVC025=

USA.gov is the U.S. government's official web portal to all federal, state and local government web resources and services.